Time;durP1;ratioP1;P1;durP2;ratioP2;P2;SDS_P1;SDS_P2;PMS_P1;PMS_P2;Temp;Humidity;BMP_temperature;BMP_pressure;BME280_temperature;BME280_humidity;BME280_pressure;Samples;Min_cycle;Max_cycle;Signal;HPM_P1;HPM_P2
2023/10/11 00:02:18;;;;;;;66.40;49.13;;;23.20;54.10;;;;;;4999938;28;20021;-62
2023/10/11 00:04:48;;;;;;;66.95;48.40;;;23.20;54.10;;;;;;5002402;28;20029;-62
2023/10/11 00:07:18;;;;;;;66.47;47.80;;;23.20;54.10;;;;;;5001062;28;20483;-63
2023/10/11 00:09:44;;;;;;;63.05;45.92;;;23.20;54.10;;;;;;5002308;28;20038;-59
2023/10/11 00:12:11;;;;;;;63.20;45.83;;;23.20;54.10;;;;;;5002811;28;20045;-60
2023/10/11 00:14:42;;;;;;;63.60;46.20;;;23.20;54.10;;;;;;5003201;28;20137;-60
2023/10/11 00:17:11;;;;;;;60.78;45.28;;;23.20;54.10;;;;;;5001416;28;20034;-62
2023/10/11 00:19:39;;;;;;;61.90;44.85;;;23.20;54.10;;;;;;5002081;28;20025;-60
2023/10/11 00:22:05;;;;;;;62.47;45.35;;;23.20;54.10;;;;;;4999753;28;20092;-59
2023/10/11 00:24:32;;;;;;;59.92;42.67;;;23.20;54.10;;;;;;4998573;28;20046;-62
2023/10/11 00:26:59;;;;;;;56.63;42.70;;;23.20;54.10;;;;;;5002127;28;20041;-61
2023/10/11 00:29:26;;;;;;;60.28;42.70;;;23.20;54.10;;;;;;5002380;28;20514;-62
2023/10/11 00:31:52;;;;;;;59.88;43.08;;;23.20;54.10;;;;;;5002884;28;20058;-64
2023/10/11 00:34:18;;;;;;;54.80;41.25;;;23.20;54.10;;;;;;5001059;28;20421;-64
2023/10/11 00:36:45;;;;;;;59.55;42.38;;;23.20;54.00;;;;;;5000872;28;20029;-61
2023/10/11 00:39:16;;;;;;;55.85;41.25;;;23.20;54.10;;;;;;5000743;28;20104;-61
2023/10/11 00:41:43;;;;;;;53.65;39.88;;;23.20;54.00;;;;;;5000230;28;20072;-62
2023/10/11 00:44:08;;;;;;;53.47;39.22;;;23.20;54.00;;;;;;5000453;28;20061;-63
2023/10/11 00:46:38;;;;;;;53.92;40.05;;;23.20;54.00;;;;;;5002311;28;20485;-62
2023/10/11 00:49:14;;;;;;;55.78;40.63;;;23.20;54.00;;;;;;5000188;28;20026;-63
2023/10/11 00:51:42;;;;;;;51.42;39.00;;;23.20;54.00;;;;;;4999725;28;20038;-63
2023/10/11 00:54:15;;;;;;;52.33;38.55;;;23.20;54.10;;;;;;5001165;28;20421;-64
2023/10/11 00:56:45;;;;;;;52.83;37.83;;;23.20;54.10;;;;;;4999832;28;20465;-63
2023/10/11 00:59:14;;;;;;;53.33;38.03;;;23.10;54.00;;;;;;5001047;28;20030;-63
2023/10/11 01:01:44;;;;;;;50.72;35.92;;;23.10;54.00;;;;;;5001744;28;20502;-63
2023/10/11 01:04:10;;;;;;;48.03;35.63;;;23.10;54.10;;;;;;5000819;28;20034;-63
2023/10/11 01:06:36;;;;;;;47.40;34.75;;;23.10;54.10;;;;;;5002711;28;20496;-63
2023/10/11 01:09:21;;;;;;;48.45;35.22;;;23.10;54.10;;;;;;5000765;28;20498;-63
2023/10/11 01:11:47;;;;;;;50.90;35.22;;;23.10;54.10;;;;;;5001226;28;20034;-63
2023/10/11 01:14:13;;;;;;;45.55;33.75;;;23.10;54.10;;;;;;5001564;28;20030;-62
2023/10/11 01:16:39;;;;;;;45.75;33.10;;;23.10;54.10;;;;;;4999809;28;20386;-62
2023/10/11 01:19:10;;;;;;;45.85;33.78;;;23.10;54.10;;;;;;4999801;28;20019;-64
2023/10/11 01:21:37;;;;;;;47.88;34.65;;;23.10;54.10;;;;;;5000375;28;20037;-64
2023/10/11 01:24:03;;;;;;;49.05;34.17;;;23.10;54.10;;;;;;5015102;28;20037;-64
2023/10/11 01:26:30;;;;;;;46.88;34.40;;;23.10;54.10;;;;;;4999622;28;20097;-64
2023/10/11 01:28:56;;;;;;;42.22;30.73;;;23.10;54.10;;;;;;5000664;28;20154;-64
2023/10/11 01:31:23;;;;;;;45.85;32.42;;;23.00;54.10;;;;;;5000232;28;20017;-64
2023/10/11 01:33:49;;;;;;;40.38;30.45;;;23.10;54.10;;;;;;5001482;28;20040;-64
2023/10/11 01:36:15;;;;;;;42.13;30.75;;;23.00;54.10;;;;;;4999775;28;20026;-64
2023/10/11 01:38:48;;;;;;;42.10;30.95;;;23.10;54.10;;;;;;5000551;28;20605;-60
2023/10/11 01:41:14;;;;;;;43.03;31.02;;;23.00;54.10;;;;;;4998001;28;20149;-61
2023/10/11 01:43:40;;;;;;;40.80;29.67;;;23.00;54.60;;;;;;5001386;28;20561;-61
2023/10/11 01:46:06;;;;;;;38.20;29.60;;;23.00;54.10;;;;;;4999876;28;20105;-62
2023/10/11 01:48:31;;;;;;;41.60;29.48;;;23.00;54.10;;;;;;4999598;28;20488;-61
2023/10/11 01:51:02;;;;;;;37.05;28.27;;;23.00;54.10;;;;;;5000876;28;20066;-62
2023/10/11 01:53:27;;;;;;;38.60;28.70;;;23.00;54.60;;;;;;5000099;28;20038;-60
2023/10/11 01:55:55;;;;;;;35.85;27.35;;;23.00;54.10;;;;;;4998963;28;20536;-62
2023/10/11 01:58:20;;;;;;;39.40;27.30;;;23.00;54.10;;;;;;5000283;28;20030;-62
2023/10/11 02:00:48;;;;;;;35.58;26.92;;;23.00;54.10;;;;;;5000604;28;20037;-61
2023/10/11 02:03:15;;;;;;;34.92;26.80;;;23.00;54.10;;;;;;4999397;28;20590;-60
2023/10/11 02:05:40;;;;;;;34.67;25.75;;;23.00;54.10;;;;;;5000260;28;20026;-60
2023/10/11 02:08:06;;;;;;;33.90;26.73;;;23.00;54.10;;;;;;4999209;28;20041;-60
2023/10/11 02:10:36;;;;;;;36.00;26.73;;;23.10;54.10;;;;;;4998737;28;20490;-61
2023/10/11 02:13:04;;;;;;;36.45;26.70;;;23.00;54.10;;;;;;4999766;28;20654;-60
2023/10/11 02:15:30;;;;;;;34.55;25.88;;;23.00;54.10;;;;;;4999156;28;20022;-61
2023/10/11 02:17:57;;;;;;;31.27;24.50;;;23.00;54.10;;;;;;4998865;28;20038;-60
2023/10/11 02:20:24;;;;;;;34.17;25.52;;;23.00;54.10;;;;;;5000319;28;20390;-60
2023/10/11 02:22:55;;;;;;;31.92;24.25;;;23.00;54.10;;;;;;4996519;28;20041;-59
2023/10/11 02:25:25;;;;;;;31.20;23.58;;;23.00;54.10;;;;;;4999520;28;20033;-60
2023/10/11 02:27:54;;;;;;;32.28;24.25;;;23.00;54.10;;;;;;4998530;28;20026;-60
2023/10/11 02:30:24;;;;;;;31.95;24.48;;;23.00;54.10;;;;;;5000805;28;20030;-63
2023/10/11 02:32:50;;;;;;;;;;;23.00;54.60;;;;;;5000411;28;20068;-63
2023/10/11 02:35:18;;;;;;;30.13;22.40;;;23.00;54.10;;;;;;4999558;28;19916;-64
2023/10/11 02:37:47;;;;;;;31.13;22.88;;;22.90;54.10;;;;;;4997217;28;20470;-64
2023/10/11 02:40:22;;;;;;;30.25;21.85;;;22.90;54.10;;;;;;4999578;28;20490;-64
2023/10/11 02:42:49;;;;;;;29.60;22.02;;;23.00;54.10;;;;;;5000326;28;20121;-64
2023/10/11 02:45:19;;;;;;;30.50;22.00;;;22.90;54.10;;;;;;4999922;28;20029;-64
2023/10/11 02:47:59;;;;;;;29.30;21.90;;;23.00;54.10;;;;;;5000031;28;20061;-64
2023/10/11 02:50:26;;;;;;;28.45;21.10;;;22.90;54.10;;;;;;4998480;28;20034;-60
2023/10/11 02:52:59;;;;;;;28.15;21.30;;;22.90;54.10;;;;;;4999141;28;20089;-59
2023/10/11 02:55:27;;;;;;;27.10;20.52;;;22.90;54.10;;;;;;4996024;28;20100;-59
2023/10/11 03:00:37;;;;;;;26.85;19.63;;;22.90;54.10;;;;;;4998415;28;20788;-60
2023/10/11 03:03:07;;;;;;;26.15;18.92;;;22.90;54.10;;;;;;4997608;28;20014;-60
2023/10/11 03:05:37;;;;;;;24.75;19.17;;;22.90;54.10;;;;;;4998466;28;20893;-62
2023/10/11 03:08:17;;;;;;;25.15;18.52;;;22.90;54.10;;;;;;4998437;28;20038;-61
2023/10/11 03:10:45;;;;;;;24.45;19.00;;;22.90;54.10;;;;;;4996870;28;20504;-63
2023/10/11 03:13:23;;;;;;;26.13;19.37;;;22.90;54.10;;;;;;4998176;28;20030;-61
2023/10/11 03:15:55;;;;;;;25.48;19.25;;;22.90;54.10;;;;;;4999893;28;20029;-61
2023/10/11 03:18:22;;;;;;;23.40;17.98;;;22.90;54.10;;;;;;4996784;28;20029;-60
2023/10/11 03:20:50;;;;;;;24.88;18.08;;;22.90;54.10;;;;;;5000419;28;20148;-60
2023/10/11 03:23:20;;;;;;;22.80;18.05;;;22.90;54.10;;;;;;4998163;28;20022;-60
2023/10/11 03:25:49;;;;;;;25.92;19.20;;;22.90;54.10;;;;;;4997850;28;20471;-60
2023/10/11 03:28:15;;;;;;;;;;;22.90;54.10;;;;;;4999061;28;20189;-60
2023/10/11 03:30:42;;;;;;;24.27;17.60;;;22.90;54.10;;;;;;4999067;28;19992;-61
2023/10/11 03:33:09;;;;;;;22.50;16.95;;;22.90;54.10;;;;;;4998225;28;20036;-61
2023/10/11 03:35:38;;;;;;;22.10;16.77;;;22.90;54.10;;;;;;4996593;28;20034;-61
2023/10/11 03:38:16;;;;;;;22.52;16.42;;;22.90;54.10;;;;;;4997731;28;20023;-60
2023/10/11 03:41:14;;;;;;;21.23;16.05;;;22.90;54.10;;;;;;4998719;28;20034;-61
2023/10/11 03:43:41;;;;;;;23.15;16.67;;;22.90;54.10;;;;;;4998232;28;20160;-63
2023/10/11 03:46:09;;;;;;;21.80;15.95;;;22.90;54.10;;;;;;4999051;28;20372;-63
2023/10/11 03:48:44;;;;;;;19.98;15.70;;;22.80;54.10;;;;;;4999682;28;20478;-63
2023/10/11 03:51:12;;;;;;;20.27;15.27;;;22.90;54.10;;;;;;4998104;28;20038;-63
2023/10/11 03:53:39;;;;;;;19.35;14.88;;;22.80;54.10;;;;;;4997350;28;20057;-63
2023/10/11 03:56:06;;;;;;;20.50;15.25;;;22.80;54.10;;;;;;4996842;28;20030;-62
2023/10/11 04:01:07;;;;;;;20.42;15.80;;;22.80;54.10;;;;;;5003188;28;20053;-65
2023/10/11 04:03:34;;;;;;;20.25;15.35;;;22.80;54.10;;;;;;5002120;28;20535;-65
2023/10/11 04:05:59;;;;;;;19.80;14.80;;;22.80;54.10;;;;;;5001943;28;20018;-65
2023/10/11 04:08:26;;;;;;;18.90;14.30;;;22.80;54.20;;;;;;5002274;28;20031;-65
2023/10/11 04:10:53;;;;;;;18.23;14.45;;;22.80;54.10;;;;;;4999640;28;20022;-65
2023/10/11 04:13:25;;;;;;;18.55;14.05;;;22.80;54.10;;;;;;5005029;28;20475;-65
2023/10/11 04:15:54;;;;;;;18.27;14.20;;;22.80;54.10;;;;;;5001395;28;20034;-65
2023/10/11 04:23:45;;;;;;;17.80;13.38;;;22.80;54.20;;;;;;5002255;28;20048;-68
2023/10/11 04:26:33;;;;;;;17.20;13.07;;;22.80;54.20;;;;;;4998392;28;20105;-68
2023/10/11 04:29:18;;;;;;;16.77;12.93;;;22.80;54.20;;;;;;4998344;28;20039;-68
2023/10/11 04:31:55;;;;;;;16.80;13.13;;;22.80;54.20;;;;;;5002003;28;20027;-69
2023/10/11 04:34:24;;;;;;;16.88;12.55;;;22.80;54.20;;;;;;5001712;28;20029;-68
2023/10/11 04:36:55;;;;;;;17.45;12.90;;;22.70;54.20;;;;;;5002080;28;20483;-68
2023/10/11 04:39:27;;;;;;;15.57;12.20;;;22.80;54.30;;;;;;4999787;28;20030;-68
2023/10/11 04:41:57;;;;;;;16.40;12.10;;;22.70;54.30;;;;;;5001391;28;20505;-67
2023/10/11 04:44:42;;;;;;;17.98;13.15;;;22.70;54.30;;;;;;5001610;28;20091;-67
2023/10/11 04:47:09;;;;;;;15.00;11.63;;;22.70;54.30;;;;;;4999821;28;20026;-66
2023/10/11 04:49:34;;;;;;;16.40;11.73;;;22.70;54.30;;;;;;5000604;28;20037;-63
2023/10/11 04:52:10;;;;;;;15.00;11.60;;;22.70;54.30;;;;;;5001117;28;20572;-61
2023/10/11 04:54:36;;;;;;;16.20;11.70;;;22.70;54.30;;;;;;5001989;28;20032;-63
2023/10/11 04:57:16;;;;;;;15.48;11.80;;;22.70;54.30;;;;;;5000962;28;20026;-62
2023/10/11 04:59:42;;;;;;;16.00;11.98;;;22.70;54.30;;;;;;5001965;28;20030;-62
2023/10/11 05:02:24;;;;;;;14.45;11.02;;;22.70;54.30;;;;;;4999434;28;20100;-62
2023/10/11 05:04:51;;;;;;;13.32;10.38;;;22.70;54.30;;;;;;4999390;28;20386;-62
2023/10/11 05:07:19;;;;;;;13.93;10.63;;;22.70;54.30;;;;;;4999146;28;20500;-63
2023/10/11 05:09:59;;;;;;;11.95;9.73;;;22.70;54.40;;;;;;5001158;28;20026;-65
2023/10/11 05:12:25;;;;;;;13.93;10.98;;;22.70;54.30;;;;;;5017220;28;20053;-65
2023/10/11 05:22:48;;;;;;;12.05;9.60;;;22.70;54.40;;;;;;5001142;28;20117;-64
2023/10/11 05:28:15;;;;;;;12.05;10.00;;;22.70;54.40;;;;;;4998329;28;20036;-65
2023/10/11 05:30:44;;;;;;;12.27;9.30;;;22.70;54.40;;;;;;5000631;28;20026;-67
2023/10/11 05:33:31;;;;;;;11.20;9.00;;;22.70;54.40;;;;;;5001166;28;20425;-67
2023/10/11 05:36:17;;;;;;;13.18;9.60;;;22.70;54.40;;;;;;5002032;28;20136;-67
2023/10/11 05:52:25;;;;;;;11.93;8.20;;;22.60;54.40;;;;;;5000104;28;20048;-67
2023/10/11 05:54:53;;;;;;;10.73;8.35;;;22.60;54.40;;;;;;5001567;28;20029;-67
2023/10/11 05:57:20;;;;;;;11.07;8.43;;;22.60;54.40;;;;;;4997979;28;20461;-66
2023/10/11 05:59:49;;;;;;;10.75;8.48;;;22.60;54.40;;;;;;4999069;28;20109;-62
2023/10/11 06:02:14;;;;;;;12.00;8.93;;;22.60;54.50;;;;;;4999601;28;20525;-62
2023/10/11 06:04:40;;;;;;;11.07;8.32;;;22.60;54.40;;;;;;5000440;28;20046;-62
2023/10/11 06:07:07;;;;;;;11.02;8.40;;;22.60;54.40;;;;;;4999749;28;20038;-61
2023/10/11 06:09:39;;;;;;;10.38;7.95;;;22.60;54.40;;;;;;4999787;28;20026;-62
2023/10/11 06:12:09;;;;;;;10.85;8.30;;;22.60;54.50;;;;;;4997893;28;20050;-62
2023/10/11 06:14:36;;;;;;;11.23;8.05;;;22.60;54.40;;;;;;4998435;28;20113;-63
2023/10/11 06:17:05;;;;;;;10.77;8.18;;;22.60;54.40;;;;;;4999667;28;20018;-63
2023/10/11 06:19:31;;;;;;;10.18;7.80;;;22.60;54.50;;;;;;4999227;28;20363;-63
2023/10/11 06:21:58;;;;;;;9.73;7.20;;;22.60;54.50;;;;;;4998801;28;20108;-62
2023/10/11 06:24:30;;;;;;;9.65;7.47;;;22.60;54.50;;;;;;5000495;28;20026;-62
2023/10/11 06:26:56;;;;;;;10.13;7.88;;;22.60;54.40;;;;;;4998369;28;20113;-64
2023/10/11 06:29:29;;;;;;;10.32;7.97;;;22.60;54.50;;;;;;4999994;28;20037;-62
2023/10/11 06:31:55;;;;;;;9.80;7.30;;;22.60;54.50;;;;;;4998736;28;20044;-63
2023/10/11 06:34:26;;;;;;;9.50;7.53;;;22.60;54.50;;;;;;5000535;28;20031;-63
2023/10/11 06:36:53;;;;;;;8.48;6.85;;;22.60;54.50;;;;;;5001277;28;20026;-62
2023/10/11 06:39:50;;;;;;;9.35;7.13;;;22.60;54.50;;;;;;5000798;28;20038;-67
2023/10/11 06:42:24;;;;;;;9.30;7.07;;;22.60;54.40;;;;;;5012762;28;20484;-67
2023/10/11 06:44:52;;;;;;;9.27;6.78;;;22.60;54.50;;;;;;4999945;28;20076;-67
2023/10/11 06:47:20;;;;;;;8.77;7.13;;;22.60;54.50;;;;;;4999510;28;20045;-67
2023/10/11 06:49:56;;;;;;;9.07;7.20;;;22.60;54.40;;;;;;5001168;28;20026;-67
2023/10/11 06:52:25;;;;;;;8.35;6.85;;;22.60;54.50;;;;;;4999280;28;20574;-67
2023/10/11 06:55:08;;;;;;;;;;;22.60;54.50;;;;;;4998478;28;20030;-67
2023/10/11 06:57:40;;;;;;;8.23;6.35;;;22.60;54.50;;;;;;4997893;28;19920;-66
2023/10/11 07:03:09;;;;;;;9.27;6.85;;;22.50;54.40;;;;;;4999996;28;20026;-67
2023/10/11 07:05:46;;;;;;;8.80;6.80;;;22.60;54.50;;;;;;4999022;28;20034;-66
2023/10/11 07:08:20;;;;;;;9.00;7.32;;;22.60;54.50;;;;;;5000009;28;20041;-65
2023/10/11 07:11:01;;;;;;;9.52;7.28;;;22.60;54.50;;;;;;4997451;28;20131;-61
2023/10/11 07:13:30;;;;;;;8.07;6.68;;;22.60;54.50;;;;;;4996997;28;20177;-62
2023/10/11 07:16:04;;;;;;;9.50;6.70;;;22.60;54.50;;;;;;5000146;28;20103;-62
2023/10/11 07:18:39;;;;;;;8.20;6.45;;;22.60;54.50;;;;;;4998354;28;20030;-61
2023/10/11 07:21:09;;;;;;;9.07;6.82;;;22.60;54.50;;;;;;4999212;28;20030;-61
2023/10/11 07:23:35;;;;;;;;;;;22.60;54.50;;;;;;4999787;28;20077;-62
2023/10/11 07:28:53;;;;;;;9.45;7.35;;;22.60;54.40;;;;;;4996282;28;20558;-62
2023/10/11 07:31:19;;;;;;;8.32;6.80;;;22.60;54.40;;;;;;5000453;28;20042;-61
2023/10/11 07:33:49;;;;;;;9.55;7.13;;;22.60;54.40;;;;;;5002600;28;20065;-60
2023/10/11 07:36:18;;;;;;;9.18;6.60;;;22.70;54.40;;;;;;5002946;28;20029;-61
2023/10/11 07:38:46;;;;;;;9.57;7.10;;;22.70;54.40;;;;;;5001054;28;20041;-61
2023/10/11 07:41:18;;;;;;;9.35;7.13;;;22.70;54.40;;;;;;5003180;28;20524;-62
2023/10/11 07:43:47;;;;;;;7.90;6.28;;;22.70;54.40;;;;;;5000955;28;20172;-62
2023/10/11 07:46:13;;;;;;;8.18;6.28;;;22.70;54.40;;;;;;5001657;28;20034;-61
2023/10/11 07:48:40;;;;;;;9.35;6.97;;;22.70;54.30;;;;;;5003285;28;20415;-62
2023/10/11 07:51:11;;;;;;;8.80;6.38;;;22.70;54.30;;;;;;5000268;28;20470;-63
2023/10/11 07:53:40;;;;;;;8.40;6.53;;;22.70;54.30;;;;;;5001728;28;20026;-63
2023/10/11 07:56:06;;;;;;;8.40;6.22;;;22.70;54.30;;;;;;5001637;28;20064;-63
2023/10/11 07:58:34;;;;;;;8.35;6.15;;;22.70;54.30;;;;;;5000701;28;20661;-63
2023/10/11 08:01:15;;;;;;;7.78;6.05;;;22.70;54.30;;;;;;5001499;28;20389;-63
2023/10/11 08:03:44;;;;;;;7.50;5.97;;;22.70;54.30;;;;;;5001151;28;20203;-63
2023/10/11 08:06:12;;;;;;;7.53;6.00;;;22.70;54.30;;;;;;5001236;28;20014;-63
2023/10/11 08:08:38;;;;;;;7.53;6.18;;;22.70;54.30;;;;;;5002339;28;20023;-63
2023/10/11 08:11:18;;;;;;;7.57;6.10;;;22.70;54.30;;;;;;5003815;28;20077;-63
2023/10/11 08:13:47;;;;;;;7.18;5.70;;;22.70;54.30;;;;;;5000369;28;20520;-63
2023/10/11 08:16:17;;;;;;;7.15;5.78;;;22.70;54.30;;;;;;4999771;28;20098;-63
2023/10/11 08:18:45;;;;;;;7.38;5.65;;;22.70;54.40;;;;;;5002183;28;20029;-63
2023/10/11 08:21:11;;;;;;;8.30;5.47;;;22.70;54.30;;;;;;5001266;28;20029;-63
2023/10/11 08:23:42;;;;;;;7.35;5.30;;;22.70;54.30;;;;;;5002492;28;20379;-63
2023/10/11 08:26:13;;;;;;;7.28;6.05;;;22.70;54.40;;;;;;5001078;28;20023;-63
2023/10/11 08:28:48;;;;;;;7.63;5.78;;;22.70;54.40;;;;;;5000344;28;20029;-63
2023/10/11 08:31:35;;;;;;;7.55;5.40;;;22.70;54.40;;;;;;5003611;28;20026;-63
2023/10/11 08:34:04;;;;;;;6.93;5.45;;;22.70;54.40;;;;;;5004140;28;20486;-63
2023/10/11 08:36:33;;;;;;;6.82;5.10;;;22.70;54.40;;;;;;5000706;28;20097;-63
2023/10/11 08:39:05;;;;;;;6.25;4.95;;;22.70;54.40;;;;;;5004079;28;20053;-63
2023/10/11 08:41:34;;;;;;;6.53;4.95;;;22.70;54.40;;;;;;5001434;28;20037;-61
2023/10/11 08:44:02;;;;;;;6.22;4.82;;;22.70;54.40;;;;;;4997593;28;20108;-61
2023/10/11 08:46:32;;;;;;;7.00;5.30;;;22.70;54.40;;;;;;5002349;28;20099;-61
2023/10/11 08:49:00;;;;;;;7.35;4.63;;;22.70;54.40;;;;;;5001025;28;20030;-61
2023/10/11 08:51:36;;;;;;;5.97;4.88;;;22.80;54.50;;;;;;4999145;28;20117;-61
2023/10/11 08:54:03;;;;;;;6.45;5.03;;;22.80;54.50;;;;;;5000631;28;20026;-61
2023/10/11 08:56:29;;;;;;;6.25;4.70;;;22.80;54.40;;;;;;5001884;28;20027;-61
2023/10/11 08:58:55;;;;;;;6.00;4.30;;;22.80;54.40;;;;;;4998948;28;20164;-61
2023/10/11 09:01:24;;;;;;;5.40;4.32;;;22.70;54.40;;;;;;5001125;28;20569;-63
2023/10/11 09:04:19;;;;;;;6.20;4.43;;;22.70;54.40;;;;;;5000972;28;20655;-64
2023/10/11 09:06:45;;;;;;;5.13;3.83;;;22.70;54.40;;;;;;4997769;28;20403;-63
2023/10/11 09:09:39;;;;;;;6.30;4.43;;;22.70;54.40;;;;;;4998672;28;20025;-63
2023/10/11 09:12:23;;;;;;;5.05;3.70;;;22.70;54.40;;;;;;5001585;28;20146;-64
2023/10/11 09:14:59;;;;;;;5.70;4.28;;;22.70;54.40;;;;;;4998895;28;20109;-63
2023/10/11 09:17:27;;;;;;;5.80;4.10;;;22.70;54.40;;;;;;5001059;28;20037;-63
2023/10/11 09:19:58;;;;;;;5.70;4.15;;;22.70;54.40;;;;;;5000068;28;20483;-64
2023/10/11 09:22:23;;;;;;;5.82;4.38;;;22.70;54.40;;;;;;5015975;28;20031;-64
2023/10/11 09:25:22;;;;;;;5.20;3.70;;;22.70;54.40;;;;;;4998093;28;20036;-63
2023/10/11 09:27:50;;;;;;;5.85;4.40;;;22.70;54.40;;;;;;4997492;28;20042;-63
2023/10/11 09:30:21;;;;;;;6.40;4.63;;;22.70;54.40;;;;;;4999844;28;20045;-63
2023/10/11 09:32:51;;;;;;;5.82;4.45;;;22.70;54.50;;;;;;4997563;28;20324;-63
2023/10/11 09:35:26;;;;;;;6.40;5.10;;;22.70;54.50;;;;;;5001408;28;20029;-63
2023/10/11 09:37:53;;;;;;;6.30;4.57;;;22.70;54.50;;;;;;4998977;28;20483;-63
2023/10/11 09:40:26;;;;;;;6.03;4.60;;;22.70;54.50;;;;;;5016192;28;20490;-63
2023/10/11 09:42:55;;;;;;;6.10;4.70;;;22.70;54.50;;;;;;5000838;28;20030;-63
2023/10/11 09:45:22;;;;;;;5.63;4.45;;;22.70;54.60;;;;;;4998146;28;20030;-63
2023/10/11 09:47:54;;;;;;;6.70;4.80;;;22.70;54.60;;;;;;4998966;28;20099;-63
2023/10/11 09:50:24;;;;;;;6.47;4.60;;;22.70;54.60;;;;;;5001820;28;20022;-64
2023/10/11 09:52:54;;;;;;;5.18;4.18;;;22.80;54.60;;;;;;5000067;28;20064;-64
2023/10/11 09:55:31;;;;;;;5.60;4.40;;;22.80;54.60;;;;;;5000511;28;20371;-64
2023/10/11 09:58:17;;;;;;;5.88;4.25;;;22.70;54.60;;;;;;5002052;28;20027;-65
2023/10/11 10:01:17;;;;;;;5.82;4.40;;;22.80;54.60;;;;;;4999986;28;20655;-64
2023/10/11 10:03:47;;;;;;;5.70;4.07;;;22.80;54.60;;;;;;4999217;28;20018;-64
2023/10/11 10:06:21;;;;;;;5.10;4.10;;;22.80;54.90;;;;;;5006756;28;20022;-64
2023/10/11 10:09:23;;;;;;;5.18;4.03;;;22.80;54.60;;;;;;4998253;28;20026;-64
2023/10/11 10:12:10;;;;;;;5.80;4.30;;;22.80;54.60;;;;;;4999390;28;20390;-63
2023/10/11 10:14:43;;;;;;;5.30;4.00;;;22.80;54.60;;;;;;4999039;28;20027;-63
2023/10/11 10:17:16;;;;;;;4.82;3.83;;;22.80;54.60;;;;;;4999803;28;20029;-63
2023/10/11 10:19:43;;;;;;;6.80;4.30;;;22.90;54.60;;;;;;4997642;28;20021;-63
2023/10/11 10:22:16;;;;;;;5.43;4.22;;;22.90;54.60;;;;;;5000920;28;20483;-63
2023/10/11 10:24:43;;;;;;;4.97;4.00;;;22.80;54.60;;;;;;4998538;28;20029;-63
2023/10/11 10:27:36;;;;;;;5.35;4.05;;;22.80;54.60;;;;;;4999311;28;20030;-63
2023/10/11 10:30:04;;;;;;;5.05;3.95;;;22.90;54.60;;;;;;4999460;28;20079;-63
2023/10/11 10:32:30;;;;;;;5.75;4.60;;;22.90;54.60;;;;;;4997295;28;20027;-63
2023/10/11 10:35:20;;;;;;;5.32;3.90;;;22.90;54.60;;;;;;4999115;28;20026;-63
2023/10/11 10:37:56;;;;;;;6.18;4.53;;;22.90;54.60;;;;;;5000462;28;20537;-63
2023/10/11 10:40:26;;;;;;;4.90;3.85;;;22.90;54.50;;;;;;5001486;28;20026;-65
2023/10/11 10:43:07;;;;;;;4.97;4.20;;;22.90;54.60;;;;;;4997540;28;20497;-64
2023/10/11 10:45:36;;;;;;;6.10;4.40;;;22.90;54.50;;;;;;4998713;28;20037;-64
2023/10/11 10:48:15;;;;;;;4.97;3.70;;;22.90;54.50;;;;;;4997341;28;20026;-65
2023/10/11 10:51:01;;;;;;;;;;;22.90;54.50;;;;;;4998531;28;20038;-64
2023/10/11 10:53:40;;;;;;;5.63;4.03;;;22.90;54.50;;;;;;5000349;28;19992;-65
2023/10/11 10:56:18;;;;;;;5.38;3.78;;;22.90;54.50;;;;;;4998657;28;20041;-64
2023/10/11 10:58:44;;;;;;;5.53;3.90;;;22.90;54.50;;;;;;4998706;28;20030;-64
2023/10/11 11:01:09;;;;;;;5.13;3.88;;;23.00;54.60;;;;;;4999293;28;20030;-61
2023/10/11 11:03:35;;;;;;;4.45;3.67;;;23.00;54.60;;;;;;4998856;28;20026;-62
2023/10/11 11:06:02;;;;;;;4.80;3.63;;;23.00;54.60;;;;;;4999781;28;20026;-61
2023/10/11 11:08:31;;;;;;;4.90;3.90;;;23.00;54.60;;;;;;4998671;28;20069;-60
2023/10/11 11:11:19;;;;;;;5.15;3.92;;;23.00;54.60;;;;;;4996592;28;20042;-61
2023/10/11 11:13:49;;;;;;;5.50;4.20;;;23.00;55.00;;;;;;4999838;28;20026;-63
2023/10/11 11:16:19;;;;;;;5.20;3.58;;;23.00;54.50;;;;;;4997508;28;20034;-61
2023/10/11 11:18:46;;;;;;;4.80;3.88;;;23.00;55.10;;;;;;4998287;28;20077;-62
2023/10/11 11:21:22;;;;;;;4.85;3.72;;;23.00;54.50;;;;;;5001083;28;20030;-61
2023/10/11 11:23:49;;;;;;;4.85;3.60;;;23.00;54.60;;;;;;5000043;28;20454;-62
2023/10/11 11:26:15;;;;;;;5.13;3.65;;;23.00;54.50;;;;;;4998946;28;20026;-62
2023/10/11 11:28:45;;;;;;;4.95;3.72;;;23.10;54.50;;;;;;4997676;28;20693;-62
2023/10/11 11:31:13;;;;;;;5.10;3.78;;;23.00;54.50;;;;;;5006447;28;20030;-61
2023/10/11 11:36:34;;;;;;;5.03;3.85;;;23.10;54.50;;;;;;4998647;28;20173;-61
2023/10/11 11:41:47;;;;;;;4.88;3.75;;;23.10;54.50;;;;;;4998330;28;20083;-62
2023/10/11 11:44:20;;;;;;;4.47;3.70;;;23.10;54.50;;;;;;4997777;28;20041;-60
2023/10/11 11:46:48;;;;;;;4.85;3.63;;;23.10;54.50;;;;;;4998257;28;20030;-63
2023/10/11 11:49:20;;;;;;;4.47;3.38;;;23.20;54.60;;;;;;5000326;28;20117;-62
2023/10/11 11:51:48;;;;;;;5.22;3.80;;;23.20;54.50;;;;;;4998514;28;20045;-63
2023/10/11 11:54:18;;;;;;;5.35;3.92;;;23.20;54.50;;;;;;4998163;28;20037;-63
2023/10/11 11:56:45;;;;;;;5.22;3.75;;;23.20;54.50;;;;;;4997744;28;20579;-63
2023/10/11 11:59:17;;;;;;;5.38;3.90;;;23.20;54.50;;;;;;4997643;28;20041;-64
2023/10/11 12:01:45;;;;;;;4.95;3.75;;;23.20;54.50;;;;;;4995255;28;20874;-63
2023/10/11 12:04:11;;;;;;;4.88;3.90;;;23.20;54.50;;;;;;4998477;28;20141;-63
2023/10/11 12:06:37;;;;;;;5.13;4.03;;;23.20;54.50;;;;;;5006370;28;20029;-63
2023/10/11 12:09:06;;;;;;;4.70;3.60;;;23.20;54.50;;;;;;4997123;28;20069;-63
2023/10/11 12:11:32;;;;;;;5.68;3.83;;;23.20;54.50;;;;;;4997921;28;20068;-63
2023/10/11 12:14:00;;;;;;;5.50;3.88;;;23.30;54.60;;;;;;4995873;28;20084;-63
2023/10/11 12:16:27;;;;;;;6.07;4.32;;;23.30;54.60;;;;;;5012052;28;20025;-64
2023/10/11 12:19:02;;;;;;;4.65;3.85;;;23.30;54.60;;;;;;5001508;28;20398;-63
2023/10/11 12:21:28;;;;;;;6.00;4.35;;;23.30;54.60;;;;;;5003228;28;20402;-63
2023/10/11 12:23:54;;;;;;;4.97;3.70;;;23.30;54.60;;;;;;5016703;28;20022;-63
2023/10/11 12:26:20;;;;;;;5.18;3.92;;;23.30;54.60;;;;;;5004231;28;20026;-63
2023/10/11 12:28:47;;;;;;;5.18;3.65;;;23.40;54.60;;;;;;4999232;28;20029;-63
2023/10/11 12:31:14;;;;;;;4.93;3.92;;;23.40;54.60;;;;;;5001619;28;20025;-63
2023/10/11 12:33:39;;;;;;;5.03;3.63;;;23.40;54.60;;;;;;5001744;28;20088;-63
2023/10/11 12:36:06;;;;;;;4.80;3.80;;;23.40;54.60;;;;;;5003891;28;20151;-63
2023/10/11 12:38:39;;;;;;;4.50;3.20;;;23.40;54.60;;;;;;5002952;28;20021;-63
2023/10/11 12:41:06;;;;;;;5.07;4.03;;;23.40;54.60;;;;;;5001420;28;20076;-63
2023/10/11 12:43:35;;;;;;;5.53;3.47;;;23.40;54.60;;;;;;5001399;28;20483;-63
2023/10/11 12:46:00;;;;;;;5.85;4.13;;;23.40;54.60;;;;;;5000263;28;20486;-63
2023/10/11 12:48:26;;;;;;;5.15;4.10;;;23.40;54.60;;;;;;5003008;28;20026;-63
2023/10/11 12:50:52;;;;;;;4.95;3.85;;;23.40;54.50;;;;;;5000689;28;20109;-63
2023/10/11 12:53:18;;;;;;;5.28;3.80;;;23.40;54.50;;;;;;5001467;28;20081;-63
2023/10/11 12:55:45;;;;;;;5.15;3.60;;;23.40;54.50;;;;;;4999871;28;20058;-63
2023/10/11 12:58:15;;;;;;;5.72;3.80;;;23.50;54.50;;;;;;5000243;28;20034;-63
2023/10/11 13:00:49;;;;;;;4.40;3.28;;;23.50;54.50;;;;;;5007165;28;20025;-63
2023/10/11 13:03:37;;;;;;;4.20;3.20;;;23.50;54.50;;;;;;5003934;28;20568;-64
2023/10/11 13:06:03;;;;;;;4.65;3.33;;;23.50;54.40;;;;;;5001494;28;20105;-63
2023/10/11 13:08:30;;;;;;;5.35;3.78;;;23.50;54.40;;;;;;5000269;28;20926;-63
2023/10/11 13:10:56;;;;;;;4.30;3.20;;;23.50;54.40;;;;;;4999781;28;20056;-63
2023/10/11 13:13:23;;;;;;;5.00;3.13;;;23.50;54.40;;;;;;4999912;28;20030;-63
2023/10/11 13:15:59;;;;;;;4.70;3.35;;;23.50;54.40;;;;;;5006793;28;20037;-63
2023/10/11 13:18:38;;;;;;;4.90;3.38;;;23.50;54.90;;;;;;5001114;28;20030;-63
2023/10/11 13:21:05;;;;;;;5.60;3.33;;;23.50;54.30;;;;;;5000410;28;20022;-63
2023/10/11 13:23:31;;;;;;;5.10;3.47;;;23.60;54.40;;;;;;4999665;28;20339;-63
2023/10/11 13:26:06;;;;;;;4.65;3.40;;;23.50;54.30;;;;;;5000760;28;20041;-63
2023/10/11 13:28:33;;;;;;;4.55;3.28;;;23.60;54.30;;;;;;5001226;28;20042;-64
2023/10/11 13:31:01;;;;;;;4.43;3.40;;;23.60;54.30;;;;;;5000381;28;20022;-63
2023/10/11 13:33:30;;;;;;;4.67;3.10;;;23.60;54.20;;;;;;4998925;28;20043;-62
2023/10/11 13:36:00;;;;;;;4.05;2.80;;;23.60;54.20;;;;;;5001191;28;20037;-63
2023/10/11 13:38:30;;;;;;;4.15;3.00;;;23.60;54.20;;;;;;5000168;28;20034;-63
2023/10/11 13:40:56;;;;;;;4.50;3.40;;;23.60;54.20;;;;;;4999134;28;20620;-61
2023/10/11 13:43:22;;;;;;;4.65;3.10;;;23.70;54.20;;;;;;4998902;28;20030;-62
2023/10/11 13:45:56;;;;;;;4.78;3.08;;;23.60;54.10;;;;;;4998991;28;20024;-61